Time;durP1;ratioP1;P1;durP2;ratioP2;P2;SDS_P1;SDS_P2;PMS_P1;PMS_P2;Temp;Humidity;BMP_temperature;BMP_pressure;BME280_temperature;BME280_humidity;BME280_pressure;Samples;Min_cycle;Max_cycle;Signal;HPM_P1;HPM_P2
2022/07/08 07:59:03;;;;;;;7.63;2.78;;;;;;;16.79;66.75;103014.78;5272327;28;20914;-68
2022/07/08 08:01:34;;;;;;;4.72;2.30;;;;;;;16.86;66.33;103020.94;5259634;28;20037;-67
2022/07/08 08:04:05;;;;;;;4.80;1.73;;;;;;;17.08;65.37;103014.22;5258360;28;20024;-68
2022/07/08 08:06:36;;;;;;;9.52;2.92;;;;;;;17.10;65.11;103009.16;5258236;28;20079;-68
2022/07/08 08:09:08;;;;;;;9.20;2.67;;;;;;;17.13;66.00;103022.63;5259027;28;20030;-67
2022/07/08 08:11:39;;;;;;;7.05;2.25;;;;;;;17.05;66.70;103026.00;5257684;28;20029;-67
2022/07/08 08:14:10;;;;;;;13.73;3.25;;;;;;;17.09;66.26;103025.16;5259115;28;20465;-67
2022/07/08 08:16:42;;;;;;;8.30;2.22;;;;;;;17.29;66.54;103029.06;5258710;28;20047;-68
2022/07/08 08:19:14;;;;;;;6.10;2.40;;;;;;;17.35;65.39;103027.94;5249839;28;20480;-68
2022/07/08 08:21:46;;;;;;;8.65;2.28;;;;;;;17.22;65.64;103026.53;5245988;28;20021;-68
2022/07/08 08:24:17;;;;;;;6.95;2.72;;;;;;;17.51;64.85;103020.31;5258068;28;20028;-68
2022/07/08 08:26:48;;;;;;;8.68;2.88;;;;;;;17.62;64.98;103021.16;5257551;28;20041;-68
2022/07/08 08:29:20;;;;;;;10.95;2.88;;;;;;;17.60;64.24;103030.69;5252116;28;20065;-67
2022/07/08 08:31:51;;;;;;;5.60;2.78;;;;;;;17.76;64.26;103027.81;5258591;28;20097;-68
2022/07/08 08:34:22;;;;;;;9.27;3.10;;;;;;;17.87;63.79;103021.09;5258104;28;20186;-68
2022/07/08 08:36:54;;;;;;;6.50;2.63;;;;;;;17.84;63.52;103024.44;5257379;28;20064;-67
2022/07/08 08:39:25;;;;;;;9.68;3.25;;;;;;;17.99;63.12;103031.97;5257818;28;20570;-68
2022/07/08 08:41:58;;;;;;;9.15;3.08;;;;;;;17.79;62.64;103028.13;5258927;28;20037;-68
2022/07/08 08:44:29;;;;;;;8.50;2.97;;;;;;;18.11;63.64;103029.69;5257483;28;20029;-68
2022/07/08 08:47:02;;;;;;;8.45;1.92;;;;;;;18.25;63.53;103033.56;5251258;28;20369;-68
2022/07/08 08:49:34;;;;;;;8.15;2.55;;;;;;;18.24;62.88;103026.25;5258856;28;20112;-68
2022/07/08 08:52:09;;;;;;;9.27;3.15;;;;;;;18.22;60.87;103016.41;5257736;28;20037;-68
2022/07/08 08:54:42;;;;;;;8.32;2.17;;;;;;;18.29;60.50;103021.72;5257542;28;20029;-68
2022/07/08 08:57:13;;;;;;;10.35;3.72;;;;;;;18.10;61.07;103021.53;5246177;28;20052;-68
2022/07/08 08:59:46;;;;;;;10.13;2.30;;;;;;;18.10;61.53;103019.59;5254764;28;20033;-68
2022/07/08 09:02:18;;;;;;;7.32;2.25;;;;;;;17.98;61.38;103016.28;5251394;28;20137;-67
2022/07/08 09:04:50;;;;;;;7.70;2.67;;;;;;;18.04;61.32;103013.13;5257936;28;20391;-68
2022/07/08 09:07:21;;;;;;;6.82;2.42;;;;;;;18.38;60.83;103008.72;5256997;28;20094;-68
2022/07/08 09:09:53;;;;;;;8.98;3.05;;;;;;;18.17;60.59;103005.22;5243386;28;20036;-68
2022/07/08 09:12:25;;;;;;;6.72;2.90;;;;;;;18.39;60.87;103010.44;5244326;28;20105;-68
2022/07/08 09:15:00;;;;;;;10.57;2.85;;;;;;;18.42;59.73;102996.63;5242051;28;20465;-68
2022/07/08 09:17:42;;;;;;;9.85;2.88;;;;;;;18.53;59.65;103002.19;5223527;28;20083;-68
2022/07/08 09:20:14;;;;;;;9.32;2.30;;;;;;;18.76;59.21;102995.00;5231967;28;20029;-68
2022/07/08 09:22:45;;;;;;;6.72;2.13;;;;;;;18.78;57.33;103004.00;5244076;28;20460;-68
2022/07/08 09:25:16;;;;;;;8.90;3.30;;;;;;;18.82;58.51;103005.09;5244123;28;20068;-72
2022/07/08 09:27:48;;;;;;;11.38;2.70;;;;;;;18.86;58.79;103011.78;5243559;28;20029;-68
2022/07/08 09:30:27;;;;;;;7.93;2.58;;;;;;;18.93;59.03;103005.84;5232997;28;20368;-68
2022/07/08 09:33:00;;;;;;;8.35;2.60;;;;;;;18.87;59.04;103007.88;5263142;28;20021;-68
2022/07/08 09:35:39;;;;;;;5.97;2.30;;;;;;;18.97;58.92;103010.59;5254292;28;20033;-68
2022/07/08 09:38:10;;;;;;;8.82;3.30;;;;;;;18.96;58.40;103008.06;5242803;28;20044;-67
2022/07/08 09:40:53;;;;;;;12.18;3.28;;;;;;;19.04;58.80;103001.81;5242830;28;20021;-67
2022/07/08 09:43:26;;;;;;;6.00;2.00;;;;;;;19.06;59.55;102989.13;5241645;28;20024;-67
2022/07/08 09:46:05;;;;;;;8.48;2.95;;;;;;;19.05;59.85;103003.50;5242497;28;20040;-67
2022/07/08 09:48:36;;;;;;;7.75;2.90;;;;;;;19.10;60.15;102998.66;5242956;28;20465;-67
2022/07/08 09:51:08;;;;;;;9.48;2.67;;;;;;;19.14;59.46;103007.31;5231043;28;20034;-68
2022/07/08 09:53:40;;;;;;;7.35;2.47;;;;;;;19.16;59.12;103004.22;5231327;28;20021;-68
2022/07/08 09:56:11;;;;;;;7.35;2.83;;;;;;;18.99;59.20;103005.50;5243526;28;20056;-69
2022/07/08 09:58:47;;;;;;;7.50;3.22;;;;;;;19.11;59.59;102999.50;5241383;28;20041;-69
2022/07/08 10:01:19;;;;;;;7.68;2.20;;;;;;;19.06;59.00;102999.53;5243568;28;20352;-68
2022/07/08 10:03:51;;;;;;;8.02;2.72;;;;;;;19.01;59.51;103008.84;5229287;28;20137;-69
2022/07/08 10:06:26;;;;;;;10.23;3.28;;;;;;;19.17;59.17;103008.72;5222485;28;20026;-69
2022/07/08 10:08:57;;;;;;;10.00;2.58;;;;;;;19.30;59.16;103005.19;5234141;28;20037;-69
2022/07/08 10:11:30;;;;;;;6.53;2.70;;;;;;;19.45;59.05;103007.00;5236132;28;20515;-69
2022/07/08 10:14:02;;;;;;;9.82;2.58;;;;;;;19.34;58.78;103004.31;5242865;28;20432;-68
2022/07/08 10:16:35;;;;;;;6.82;2.63;;;;;;;19.51;59.11;103006.66;5230106;28;20045;-69
2022/07/08 10:19:25;;;;;;;5.85;1.92;;;;;;;19.60;58.98;103015.28;5228595;28;20026;-69
2022/07/08 10:21:58;;;;;;;5.22;2.17;;;;;;;19.64;58.23;103012.72;5241976;28;20172;-69
2022/07/08 10:24:35;;;;;;;6.40;2.35;;;;;;;19.72;58.32;103012.09;5241925;28;20018;-69
2022/07/08 10:27:09;;;;;;;10.32;7.70;;;;;;;19.73;57.64;103005.31;5229120;28;20103;-69
2022/07/08 10:29:40;;;;;;;44.15;39.45;;;;;;;19.76;58.11;103007.53;5242709;28;20377;-69
2022/07/08 10:32:23;;;;;;;8.80;3.35;;;;;;;19.85;58.32;103005.75;5242080;28;20176;-69
2022/07/08 10:35:13;;;;;;;7.47;3.17;;;;;;;19.81;58.69;103001.84;5241877;28;20029;-69
2022/07/08 10:37:57;;;;;;;7.45;3.03;;;;;;;19.95;58.53;102996.31;5242827;28;20394;-69
2022/07/08 10:40:47;;;;;;;6.68;2.10;;;;;;;20.17;58.35;102996.59;5241667;28;20036;-69
2022/07/08 10:43:19;;;;;;;5.03;2.30;;;;;;;20.04;57.64;102993.66;5242767;28;20469;-70
2022/07/08 10:46:11;;;;;;;5.27;2.07;;;;;;;20.32;57.44;103001.13;5233818;28;20079;-69
2022/07/08 10:48:45;;;;;;;10.07;2.72;;;;;;;20.37;57.20;102995.44;5242127;28;20291;-68
2022/07/08 10:51:20;;;;;;;8.25;2.25;;;;;;;20.37;57.14;102998.25;5241612;28;20034;-68
2022/07/08 10:53:52;;;;;;;4.50;1.92;;;;;;;20.34;57.08;102989.56;5220723;28;20390;-68
2022/07/08 10:56:48;;;;;;;5.30;2.15;;;;;;;20.58;57.16;102995.16;5227311;28;20025;-68
2022/07/08 10:59:37;;;;;;;7.40;2.22;;;;;;;20.59;56.82;102996.84;5242063;28;20078;-69
2022/07/08 11:02:10;;;;;;;9.40;3.03;;;;;;;20.44;56.37;102989.41;5234628;28;20480;-69
2022/07/08 11:04:47;;;;;;;6.30;2.10;;;;;;;20.59;57.04;102988.38;5241141;28;20041;-69
2022/07/08 11:07:20;;;;;;;9.13;2.72;;;;;;;20.72;56.77;102995.22;5237653;28;20021;-69
2022/07/08 11:10:08;;;;;;;6.97;4.68;;;;;;;20.99;55.58;102995.31;5233391;28;20026;-72
2022/07/08 11:12:46;;;;;;;6.13;2.20;;;;;;;21.25;54.47;103000.50;5239174;28;20053;-72
2022/07/08 11:15:17;;;;;;;7.13;2.80;;;;;;;21.11;54.39;102997.63;5241180;28;20041;-71
2022/07/08 11:17:51;;;;;;;6.47;2.25;;;;;;;21.37;53.99;103002.81;5238990;28;20030;-72
2022/07/08 11:20:22;;;;;;;6.22;1.98;;;;;;;21.27;54.65;102989.75;5238531;28;20029;-71
2022/07/08 11:22:54;;;;;;;3.00;1.90;;;;;;;21.49;54.28;102991.88;5240535;28;20033;-73
2022/07/08 11:25:26;;;;;;;4.75;2.38;;;;;;;21.30;53.78;102988.28;5241318;28;20029;-74
2022/07/08 11:27:57;;;;;;;6.15;2.05;;;;;;;21.26;54.40;102986.06;5240936;28;20068;-75
2022/07/08 11:30:35;;;;;;;5.30;1.77;;;;;;;21.53;54.33;102992.94;5241476;28;20048;-76
2022/07/08 11:33:06;;;;;;;4.70;2.00;;;;;;;21.92;54.14;102994.38;5241070;28;20112;-75
2022/07/08 11:35:38;;;;;;;6.03;2.17;;;;;;;21.96;53.72;102995.44;5239831;28;20199;-70
2022/07/08 11:38:09;;;;;;;6.22;2.58;;;;;;;21.66;53.03;102989.28;5240692;28;20090;-71
2022/07/08 11:40:45;;;;;;;5.32;2.08;;;;;;;21.98;53.52;102993.09;5241578;28;20458;-71
2022/07/08 11:43:21;;;;;;;5.65;2.67;;;;;;;21.82;53.23;102994.59;5240908;28;20075;-73
2022/07/08 11:45:52;;;;;;;5.88;2.28;;;;;;;21.81;52.91;102987.28;5240940;28;20090;-71
2022/07/08 11:48:37;;;;;;;9.63;5.15;;;;;;;22.07;53.32;102985.56;5240443;28;20112;-70
2022/07/08 11:51:12;;;;;;;5.32;2.25;;;;;;;22.22;52.31;102994.91;5239736;28;20570;-70
2022/07/08 11:53:44;;;;;;;6.68;2.20;;;;;;;22.11;51.92;102997.91;5235435;28;20026;-70
2022/07/08 11:56:18;;;;;;;4.63;2.00;;;;;;;22.36;52.32;102987.19;5239363;28;20461;-69
2022/07/08 11:58:51;;;;;;;7.35;2.30;;;;;;;22.77;51.68;102980.53;5240475;28;20042;-69
2022/07/08 12:01:23;;;;;;;6.28;2.60;;;;;;;22.56;51.35;102991.53;5241196;28;20093;-70
2022/07/08 12:03:54;;;;;;;8.13;4.78;;;;;;;22.57;51.30;102988.41;5240544;28;20216;-70
2022/07/08 12:06:26;;;;;;;5.35;2.80;;;;;;;22.54;51.53;102986.19;5241169;28;20088;-70
2022/07/08 12:08:58;;;;;;;5.05;2.22;;;;;;;22.33;51.52;102979.38;5232247;28;20042;-71
2022/07/08 12:11:29;;;;;;;5.63;2.15;;;;;;;22.70;51.34;102968.84;5237734;28;20074;-71
2022/07/08 12:14:08;;;;;;;8.18;2.50;;;;;;;22.86;51.32;102983.44;5241289;28;20026;-70
2022/07/08 12:16:44;;;;;;;6.85;2.30;;;;;;;22.86;50.53;102978.63;5240770;28;20029;-72
2022/07/08 12:19:34;;;;;;;5.80;2.22;;;;;;;22.93;51.08;102959.19;5235655;28;20080;-71
2022/07/08 12:22:07;;;;;;;10.00;3.78;;;;;;;23.13;50.46;102965.47;5250663;28;20083;-71
2022/07/08 12:24:41;;;;;;;6.50;2.30;;;;;;;23.64;50.38;102966.88;5230731;28;20036;-70
2022/07/08 12:27:19;;;;;;;5.05;2.33;;;;;;;23.10;49.64;102968.97;5239103;28;20076;-70
2022/07/08 12:29:51;;;;;;;8.80;2.35;;;;;;;23.30;49.90;102959.91;5239310;28;20037;-70
2022/07/08 12:32:22;;;;;;;4.03;1.88;;;;;;;23.40;49.59;102962.47;5240129;28;20026;-70
2022/07/08 12:34:54;;;;;;;5.63;2.83;;;;;;;23.24;49.25;102961.22;5239375;28;20033;-70
2022/07/08 12:37:25;;;;;;;9.85;2.00;;;;;;;23.51;49.48;102965.00;5227905;28;20041;-69
2022/07/08 12:39:57;;;;;;;5.43;3.47;;;;;;;23.26;50.00;102963.72;5219229;28;20054;-69
2022/07/08 12:42:28;;;;;;;11.48;9.27;;;;;;;23.27;50.08;102957.75;5235439;28;20022;-70
2022/07/08 12:44:59;;;;;;;7.93;3.08;;;;;;;23.21;50.06;102961.84;5236730;28;20025;-70
2022/07/08 12:47:33;;;;;;;6.00;2.50;;;;;;;23.25;50.41;102965.72;5243695;28;20045;-70
2022/07/08 12:50:06;;;;;;;4.85;3.13;;;;;;;23.38;50.02;102956.28;5244568;28;20103;-70
2022/07/08 12:52:37;;;;;;;9.10;2.78;;;;;;;23.49;49.57;102958.81;5243763;28;20041;-70
2022/07/08 12:55:09;;;;;;;5.47;2.40;;;;;;;23.69;49.34;102952.56;5244794;28;20055;-69
2022/07/08 12:57:40;;;;;;;6.50;2.38;;;;;;;23.94;49.14;102958.66;5243788;28;20041;-70
2022/07/08 13:00:12;;;;;;;6.32;2.17;;;;;;;23.96;49.27;102957.16;5242747;28;20032;-69
2022/07/08 13:02:44;;;;;;;4.65;1.95;;;;;;;23.95;48.70;102955.47;5249659;28;20036;-70
2022/07/08 13:05:16;;;;;;;3.88;1.90;;;;;;;23.91;48.08;102954.47;5264768;28;20032;-70
2022/07/08 13:07:47;;;;;;;8.07;5.90;;;;;;;23.96;48.66;102954.31;5252572;28;20037;-70
2022/07/08 13:10:18;;;;;;;7.05;2.42;;;;;;;24.00;48.85;102945.97;5244399;28;20049;-69
2022/07/08 13:12:49;;;;;;;6.50;2.28;;;;;;;24.22;48.30;102951.50;5244065;28;20029;-69
2022/07/08 13:15:21;;;;;;;7.40;2.70;;;;;;;24.27;48.24;102948.50;5240462;28;20022;-69
2022/07/08 13:17:52;;;;;;;4.18;2.03;;;;;;;24.32;48.02;102943.84;5234208;28;20037;-70
2022/07/08 13:20:23;;;;;;;4.85;2.30;;;;;;;24.18;48.13;102949.66;5243314;28;20033;-70
2022/07/08 13:22:55;;;;;;;6.03;2.15;;;;;;;24.22;48.18;102945.00;5240886;28;20025;-70
2022/07/08 13:25:26;;;;;;;6.07;2.20;;;;;;;24.05;47.75;102940.97;5243788;28;20025;-70
2022/07/08 13:27:58;;;;;;;9.82;5.72;;;;;;;24.49;47.93;102936.22;5241541;28;20021;-70
2022/07/08 13:30:29;;;;;;;5.45;2.40;;;;;;;24.27;48.58;102937.16;5243100;28;20056;-69
2022/07/08 13:33:00;;;;;;;7.18;3.03;;;;;;;23.96;48.33;102931.66;5242810;28;20103;-69
2022/07/08 13:35:31;;;;;;;5.97;2.30;;;;;;;23.94;49.27;102938.81;5236410;28;20381;-70
2022/07/08 13:38:03;;;;;;;4.20;2.03;;;;;;;23.84;49.39;102937.13;5242611;28;20488;-70
2022/07/08 13:40:34;;;;;;;43.78;39.17;;;;;;;23.98;49.08;102928.47;5243739;28;20029;-70
2022/07/08 13:43:05;;;;;;;27.98;24.55;;;;;;;24.22;48.37;102930.84;5242557;28;20030;-70
2022/07/08 13:45:37;;;;;;;7.22;2.83;;;;;;;24.05;48.63;102931.66;5242849;28;20485;-70
2022/07/08 13:48:08;;;;;;;14.32;12.98;;;;;;;24.42;48.60;102935.00;5242289;28;20038;-71
2022/07/08 13:50:40;;;;;;;12.90;11.63;;;;;;;24.63;47.34;102927.50;5240010;28;20487;-69
2022/07/08 13:53:11;;;;;;;3.42;2.40;;;;;;;24.88;46.50;102924.94;5238256;28;20025;-70
2022/07/08 13:55:42;;;;;;;4.53;2.15;;;;;;;25.03;46.90;102915.03;5242211;28;20029;-70
2022/07/08 13:58:14;;;;;;;5.68;2.47;;;;;;;24.98;46.63;102918.06;5241979;28;20081;-70
2022/07/08 14:00:45;;;;;;;4.95;2.03;;;;;;;25.17;46.61;102919.34;5241735;28;20044;-70
2022/07/08 14:03:16;;;;;;;8.50;2.47;;;;;;;25.22;46.44;102923.19;5244716;28;20033;-70
2022/07/08 14:05:48;;;;;;;6.20;2.67;;;;;;;25.40;45.90;102913.41;5243053;28;20035;-69
2022/07/08 14:08:19;;;;;;;13.35;8.57;;;;;;;25.64;45.99;102915.59;5241796;28;20047;-67
2022/07/08 14:10:51;;;;;;;28.25;25.48;;;;;;;25.56;45.95;102911.63;5228856;28;20520;-71
2022/07/08 14:13:22;;;;;;;5.55;3.10;;;;;;;25.46;45.32;102911.22;5243125;28;20022;-70
2022/07/08 14:15:53;;;;;;;23.33;19.27;;;;;;;25.47;45.56;102899.50;5241854;28;20025;-71
2022/07/08 14:18:25;;;;;;;11.60;9.40;;;;;;;25.62;45.62;102905.75;5241862;28;20034;-74
2022/07/08 14:20:56;;;;;;;8.35;3.30;;;;;;;25.68;45.47;102904.41;5242728;28;20468;-70
2022/07/08 14:23:31;;;;;;;7.95;3.95;;;;;;;25.86;44.73;102905.97;5242047;28;20029;-70
2022/07/08 14:26:02;;;;;;;28.98;25.77;;;;;;;25.77;44.45;102905.16;5234916;28;20041;-70
2022/07/08 14:28:37;;;;;;;6.53;2.63;;;;;;;25.85;44.10;102904.31;5242546;28;20472;-71
2022/07/08 14:31:08;;;;;;;6.87;3.00;;;;;;;25.91;44.40;102896.41;5241973;28;20388;-71
2022/07/08 14:33:39;;;;;;;4.97;2.53;;;;;;;25.59;44.48;102899.63;5242280;28;20311;-71
2022/07/08 14:36:11;;;;;;;9.98;8.50;;;;;;;25.68;44.57;102896.72;5241360;28;20134;-71
2022/07/08 14:38:42;;;;;;;5.65;4.68;;;;;;;25.83;44.51;102894.44;5239760;28;20449;-70
2022/07/08 14:41:14;;;;;;;14.75;10.23;;;;;;;25.90;44.48;102889.06;5241538;28;20044;-70
2022/07/08 14:43:46;;;;;;;5.90;4.82;;;;;;;25.92;43.65;102892.38;5240847;28;20069;-70
2022/07/08 14:46:18;;;;;;;6.00;2.40;;;;;;;25.93;44.17;102883.53;5241474;28;20033;-70
2022/07/08 14:48:50;;;;;;;6.38;2.85;;;;;;;26.11;44.26;102889.06;5241933;28;20021;-70
2022/07/08 14:51:21;;;;;;;5.20;2.47;;;;;;;26.26;44.06;102884.75;5240805;28;20028;-70
2022/07/08 14:53:52;;;;;;;6.78;2.45;;;;;;;25.85;43.53;102886.41;5241195;28;20033;-70
2022/07/08 14:56:23;;;;;;;7.03;2.70;;;;;;;25.60;44.52;102892.75;5242127;28;20025;-70
2022/07/08 14:58:55;;;;;;;5.25;3.13;;;;;;;25.27;45.40;102886.09;5234811;28;20159;-70
2022/07/08 15:01:26;;;;;;;4.72;2.60;;;;;;;25.08;45.22;102881.66;5241139;28;20110;-70
2022/07/08 15:03:57;;;;;;;17.05;14.07;;;;;;;24.90;45.64;102880.03;5240598;28;20025;-71
2022/07/08 15:06:30;;;;;;;22.77;20.48;;;;;;;25.00;46.05;102891.00;5240420;28;20032;-71
2022/07/08 15:09:02;;;;;;;11.60;4.40;;;;;;;24.80;46.55;102884.09;5241514;28;20469;-70
2022/07/08 15:11:33;;;;;;;59.60;53.75;;;;;;;24.78;47.21;102886.41;5235979;28;20029;-70
2022/07/08 15:14:04;;;;;;;7.40;4.10;;;;;;;24.59;47.02;102885.94;5229404;28;20458;-71
2022/07/08 15:16:36;;;;;;;7.93;3.42;;;;;;;24.47;47.42;102881.00;5240124;28;20120;-71
2022/07/08 15:19:08;;;;;;;5.55;3.00;;;;;;;24.43;47.41;102875.09;5241819;28;20070;-70
2022/07/08 15:21:40;;;;;;;4.72;2.20;;;;;;;24.34;48.04;102876.28;5240133;28;20384;-71
2022/07/08 15:24:14;;;;;;;8.48;3.33;;;;;;;24.40;48.36;102874.97;5241169;28;20109;-70
2022/07/08 15:26:45;;;;;;;5.90;2.80;;;;;;;24.30;48.37;102876.97;5241501;28;20030;-71
2022/07/08 15:29:17;;;;;;;8.27;4.45;;;;;;;24.27;48.53;102862.63;5240811;28;20043;-71
2022/07/08 15:31:48;;;;;;;9.43;4.70;;;;;;;24.20;48.62;102874.47;5241769;28;20026;-71
2022/07/08 15:34:19;;;;;;;4.50;2.35;;;;;;;23.98;48.53;102867.00;5239837;28;20036;-71
2022/07/08 15:36:51;;;;;;;5.55;2.20;;;;;;;24.05;48.69;102866.47;5239038;28;20040;-71
2022/07/08 15:39:22;;;;;;;5.57;2.22;;;;;;;24.20;49.23;102863.13;5239854;28;20136;-71
2022/07/08 15:41:53;;;;;;;4.32;2.88;;;;;;;24.22;48.80;102863.63;5239078;28;20082;-69
2022/07/08 15:44:25;;;;;;;5.50;2.35;;;;;;;24.04;48.82;102859.16;5239975;28;20388;-70
2022/07/08 15:46:56;;;;;;;11.27;7.25;;;;;;;24.04;48.81;102859.16;5241220;28;20021;-70
2022/07/08 15:49:27;;;;;;;10.80;6.45;;;;;;;24.28;48.20;102864.28;5239582;28;20098;-71
2022/07/08 15:51:59;;;;;;;5.80;2.38;;;;;;;24.26;47.09;102856.13;5239556;28;20043;-72
2022/07/08 15:54:31;;;;;;;3.88;2.38;;;;;;;24.43;47.09;102851.59;5239922;28;20135;-71
2022/07/08 15:57:03;;;;;;;5.72;2.00;;;;;;;24.43;45.55;102845.91;5239953;28;20505;-71
2022/07/08 15:59:35;;;;;;;5.40;1.73;;;;;;;24.69;45.41;102854.38;5240312;28;20026;-71
2022/07/08 16:02:06;;;;;;;4.28;1.75;;;;;;;24.76;44.57;102853.88;5224116;28;20052;-69
2022/07/08 16:04:37;;;;;;;4.30;1.60;;;;;;;24.83;44.08;102857.88;5219730;28;20037;-68
2022/07/08 16:07:08;;;;;;;6.25;1.98;;;;;;;24.79;43.93;102850.34;5234450;28;20119;-70
2022/07/08 16:09:40;;;;;;;8.68;7.85;;;;;;;24.93;43.98;102845.31;5237385;28;20028;-69
2022/07/08 16:12:11;;;;;;;3.92;3.10;;;;;;;24.88;44.24;102836.97;5238575;28;20060;-70
2022/07/08 16:14:44;;;;;;;4.00;2.30;;;;;;;24.95;43.91;102846.63;5238866;28;20021;-69
2022/07/08 16:17:16;;;;;;;4.65;2.67;;;;;;;25.16;44.18;102846.72;5219612;28;20030;-68
2022/07/08 16:19:47;;;;;;;6.32;1.85;;;;;;;25.07;43.48;102845.91;5223384;28;20036;-67
2022/07/08 16:22:19;;;;;;;4.65;1.80;;;;;;;25.09;43.63;102849.22;5242658;28;20017;-69
2022/07/08 16:24:50;;;;;;;4.38;1.67;;;;;;;25.17;43.65;102844.72;5229446;28;20033;-69
2022/07/08 16:27:21;;;;;;;4.90;1.38;;;;;;;25.21;43.09;102842.88;5221951;28;20026;-69
2022/07/08 16:29:53;;;;;;;2.28;1.77;;;;;;;25.28;43.10;102848.00;5222540;28;20034;-69
2022/07/08 16:32:24;;;;;;;3.58;2.35;;;;;;;25.18;43.16;102835.00;5223694;28;20103;-69
2022/07/08 16:34:55;;;;;;;8.63;7.03;;;;;;;25.27;43.28;102829.31;5223983;28;20034;-69
2022/07/08 16:37:27;;;;;;;13.43;9.77;;;;;;;25.50;42.98;102818.47;5222940;28;20080;-68
2022/07/08 16:39:58;;;;;;;39.53;32.10;;;;;;;25.60;42.52;102826.56;5223499;28;20026;-68
2022/07/08 16:42:29;;;;;;;5.53;5.03;;;;;;;25.80;42.22;102833.44;5225951;28;20073;-70
2022/07/08 16:45:01;;;;;;;3.30;1.92;;;;;;;25.65;40.88;102831.22;5243558;28;20065;-70
2022/07/08 16:47:34;;;;;;;36.60;31.50;;;;;;;25.77;41.56;102836.97;5244641;28;20021;-69
2022/07/08 16:50:06;;;;;;;4.65;2.20;;;;;;;25.50;41.76;102833.50;5244157;28;20113;-69
2022/07/08 16:52:37;;;;;;;7.32;4.22;;;;;;;25.55;41.80;102827.59;5244169;28;20548;-70
2022/07/08 16:55:08;;;;;;;4.70;1.95;;;;;;;25.73;41.51;102828.31;5244707;28;20025;-71
2022/07/08 16:57:40;;;;;;;4.63;1.60;;;;;;;25.79;41.60;102820.41;5242497;28;20052;-71
2022/07/08 17:00:11;;;;;;;11.27;9.07;;;;;;;25.79;41.42;102824.06;5229673;28;20018;-69
2022/07/08 17:02:43;;;;;;;13.43;12.07;;;;;;;25.92;41.07;102829.84;5244440;28;20072;-69
2022/07/08 17:05:14;;;;;;;3.80;1.98;;;;;;;26.03;41.15;102828.25;5244320;28;20025;-69
2022/07/08 17:07:45;;;;;;;2.58;1.30;;;;;;;26.02;41.17;102826.59;5243521;28;20058;-69
2022/07/08 17:10:17;;;;;;;1.75;1.50;;;;;;;26.14;41.06;102815.28;5244124;28;20160;-69
2022/07/08 17:12:48;;;;;;;6.47;1.75;;;;;;;26.15;40.99;102810.41;5252362;28;20021;-70
2022/07/08 17:15:19;;;;;;;3.22;1.77;;;;;;;26.07;40.72;102814.16;5256402;28;20025;-70
2022/07/08 17:17:51;;;;;;;2.30;1.40;;;;;;;25.94;41.17;102816.97;5244103;28;20374;-70
2022/07/08 17:20:23;;;;;;;4.03;1.45;;;;;;;25.88;41.13;102809.00;5242729;28;20025;-72
2022/07/08 17:22:54;;;;;;;3.47;1.50;;;;;;;25.88;41.70;102809.84;5244543;28;20496;-72
2022/07/08 17:25:25;;;;;;;3.10;1.40;;;;;;;25.88;41.43;102800.47;5244103;28;20045;-71
2022/07/08 17:27:57;;;;;;;3.63;1.73;;;;;;;25.96;41.21;102805.25;5261398;28;20025;-71
2022/07/08 17:30:29;;;;;;;3.67;1.63;;;;;;;25.88;41.74;102812.69;5261651;28;20032;-72
